Time;durP1;ratioP1;P1;durP2;ratioP2;P2;SDS_P1;SDS_P2;PMS_P1;PMS_P2;Temp;Humidity;BMP_temperature;BMP_pressure;BME280_temperature;BME280_humidity;BME280_pressure;Samples;Min_cycle;Max_cycle;Signal;HPM_P1;HPM_P2
2024/03/04 00:04:42;;;;;;;1.95;1.30;;;;;;;;;;10468439;28;20454;-75
2024/03/04 00:09:45;;;;;;;3.50;1.75;;;;;;;;;;10460790;28;20039;-74
2024/03/04 00:14:49;;;;;;;3.25;1.48;;;;;;;;;;10471810;28;20117;-76
2024/03/04 00:19:52;;;;;;;3.15;1.15;;;;;;;;;;10472894;28;20032;-76
2024/03/04 00:24:55;;;;;;;2.72;1.77;;;;;;;;;;10468779;28;20056;-75
2024/03/04 00:29:59;;;;;;;2.63;1.70;;;;;;;;;;10464005;28;20569;-76
2024/03/04 00:35:03;;;;;;;1.45;0.90;;;;;;;;;;10469352;28;20048;-76
2024/03/04 00:40:06;;;;;;;2.13;0.70;;;;;;;;;;10468088;28;20108;-74
2024/03/04 00:45:12;;;;;;;4.13;1.00;;;;;;;;;;10464655;28;20045;-75
2024/03/04 00:50:15;;;;;;;2.10;0.98;;;;;;;;;;10464543;28;20036;-75
2024/03/04 00:55:18;;;;;;;3.78;1.92;;;;;;;;;;10476186;28;20041;-76
2024/03/04 01:00:23;;;;;;;3.28;1.52;;;;;;;;;;10473039;28;20063;-75
2024/03/04 01:05:26;;;;;;;0.88;0.85;;;;;;;;;;10468668;28;20101;-75
2024/03/04 01:10:30;;;;;;;0.77;0.50;;;;;;;;;;10468840;28;20668;-75
2024/03/04 01:15:35;;;;;;;2.50;1.20;;;;;;;;;;10472847;28;20048;-75
2024/03/04 01:20:38;;;;;;;2.05;1.35;;;;;;;;;;10465303;28;20123;-77
2024/03/04 01:25:41;;;;;;;2.08;0.85;;;;;;;;;;10465836;28;20727;-76
2024/03/04 01:30:45;;;;;;;1.92;1.13;;;;;;;;;;10470181;28;20036;-76
2024/03/04 01:35:48;;;;;;;2.20;1.10;;;;;;;;;;10468329;28;20068;-76
2024/03/04 01:40:51;;;;;;;2.20;1.10;;;;;;;;;;10460148;28;20149;-76
2024/03/04 01:45:55;;;;;;;4.45;1.77;;;;;;;;;;10459396;28;20541;-75
2024/03/04 01:50:59;;;;;;;2.60;1.40;;;;;;;;;;10469772;28;20045;-75
2024/03/04 01:56:03;;;;;;;3.10;1.38;;;;;;;;;;10462034;28;20068;-75
2024/03/04 02:01:08;;;;;;;2.75;1.30;;;;;;;;;;10458239;28;20049;-75
2024/03/04 02:06:11;;;;;;;3.30;1.20;;;;;;;;;;10461927;28;20123;-76
2024/03/04 02:11:14;;;;;;;1.98;1.17;;;;;;;;;;10462825;28;20060;-75
2024/03/04 02:16:19;;;;;;;1.87;1.07;;;;;;;;;;10462898;28;20131;-75
2024/03/04 02:21:22;;;;;;;3.28;1.30;;;;;;;;;;10465559;28;20067;-75
2024/03/04 02:26:26;;;;;;;1.70;1.10;;;;;;;;;;10471195;28;20041;-74
2024/03/04 02:31:29;;;;;;;;;;;;;;;;;;10460876;28;20044;-75
2024/03/04 02:36:32;;;;;;;3.45;1.35;;;;;;;;;;10465660;28;20099;-73
2024/03/04 02:41:36;;;;;;;4.25;1.20;;;;;;;;;;10463730;28;20044;-74
2024/03/04 02:46:40;;;;;;;1.90;1.20;;;;;;;;;;10463715;28;20553;-74
2024/03/04 02:51:43;;;;;;;2.20;1.33;;;;;;;;;;10462845;28;20060;-74
2024/03/04 02:56:47;;;;;;;3.75;1.35;;;;;;;;;;10470510;28;20172;-73
2024/03/04 03:01:50;;;;;;;2.58;1.20;;;;;;;;;;10463861;28;20052;-74
2024/03/04 03:06:53;;;;;;;2.53;0.95;;;;;;;;;;10465435;28;20032;-75
2024/03/04 03:11:57;;;;;;;3.13;0.90;;;;;;;;;;10470619;28;20094;-74
2024/03/04 03:17:00;;;;;;;4.07;1.20;;;;;;;;;;10458685;28;20040;-76
2024/03/04 03:22:04;;;;;;;1.58;0.38;;;;;;;;;;10463891;28;20479;-75
2024/03/04 03:27:08;;;;;;;2.30;0.98;;;;;;;;;;10455243;28;20059;-74
2024/03/04 03:32:11;;;;;;;2.45;0.82;;;;;;;;;;10469471;28;20491;-75
2024/03/04 03:37:13;;;;;;;3.88;1.23;;;;;;;;;;10470842;28;20138;-76
2024/03/04 03:42:17;;;;;;;0.10;0.10;;;;;;;;;;10469257;28;20037;-75
2024/03/04 03:47:20;;;;;;;3.33;1.23;;;;;;;;;;10473796;28;20333;-76
2024/03/04 03:52:23;;;;;;;2.30;0.40;;;;;;;;;;10469582;28;20164;-76
2024/03/04 03:57:27;;;;;;;1.88;1.30;;;;;;;;;;10475937;28;20048;-75
2024/03/04 04:02:43;;;;;;;1.40;0.80;;;;;;;;;;10462083;28;20049;-76
2024/03/04 04:07:46;;;;;;;1.70;1.17;;;;;;;;;;10466734;28;20047;-75
2024/03/04 04:12:51;;;;;;;1.05;0.73;;;;;;;;;;10470869;28;20125;-74
2024/03/04 04:17:54;;;;;;;2.05;1.38;;;;;;;;;;10466781;28;20044;-75
2024/03/04 04:22:59;;;;;;;1.83;0.75;;;;;;;;;;10480054;28;20037;-75
2024/03/04 04:28:03;;;;;;;3.47;1.70;;;;;;;;;;10467134;28;20130;-76
2024/03/04 04:33:06;;;;;;;4.97;2.00;;;;;;;;;;10468109;28;20036;-75
2024/03/04 04:38:08;;;;;;;3.58;1.90;;;;;;;;;;10473454;28;20055;-73
2024/03/04 04:43:13;;;;;;;2.90;1.58;;;;;;;;;;10477027;28;20419;-76
2024/03/04 04:48:16;;;;;;;4.88;2.88;;;;;;;;;;10476152;28;20044;-74
2024/03/04 04:53:20;;;;;;;3.13;1.60;;;;;;;;;;10464510;28;20503;-75
2024/03/04 04:58:24;;;;;;;3.75;1.90;;;;;;;;;;10468254;28;20059;-76
2024/03/04 05:03:27;;;;;;;5.68;2.72;;;;;;;;;;10465209;28;20477;-76
2024/03/04 05:08:49;;;;;;;6.35;2.10;;;;;;;;;;10473475;28;20849;-77
2024/03/04 05:13:53;;;;;;;4.80;2.53;;;;;;;;;;10470165;28;20084;-76
2024/03/04 05:18:56;;;;;;;8.15;3.35;;;;;;;;;;10465648;28;20303;-76
2024/03/04 05:23:59;;;;;;;6.97;3.38;;;;;;;;;;10467539;28;20086;-76
2024/03/04 05:29:04;;;;;;;7.38;2.83;;;;;;;;;;10471703;28;20048;-75
2024/03/04 05:34:07;;;;;;;11.82;4.97;;;;;;;;;;10468407;28;20090;-74
2024/03/04 05:39:10;;;;;;;8.63;3.13;;;;;;;;;;10467569;28;20732;-74
2024/03/04 05:44:14;;;;;;;11.18;4.25;;;;;;;;;;10458542;28;20146;-75
2024/03/04 05:49:17;;;;;;;8.10;3.58;;;;;;;;;;10468735;28;20051;-76
2024/03/04 05:54:20;;;;;;;13.48;5.95;;;;;;;;;;10468584;28;20091;-74
2024/03/04 05:59:24;;;;;;;13.52;5.05;;;;;;;;;;10466514;28;20257;-74
2024/03/04 06:04:27;;;;;;;15.43;6.00;;;;;;;;;;10462464;28;20515;-74
2024/03/04 06:09:30;;;;;;;15.00;6.78;;;;;;;;;;10469353;28;20048;-75
2024/03/04 06:14:34;;;;;;;16.25;6.95;;;;;;;;;;10467378;28;20260;-76
2024/03/04 06:19:36;;;;;;;10.35;4.75;;;;;;;;;;10463245;28;20459;-76
2024/03/04 06:24:40;;;;;;;20.75;7.57;;;;;;;;;;10468654;28;20040;-75
2024/03/04 06:29:44;;;;;;;18.23;7.72;;;;;;;;;;10461900;28;20056;-75
2024/03/04 06:34:47;;;;;;;16.08;6.47;;;;;;;;;;10461526;28;20076;-75
2024/03/04 06:39:49;;;;;;;14.77;6.47;;;;;;;;;;10463320;28;20173;-75
2024/03/04 06:44:54;;;;;;;7.72;3.60;;;;;;;;;;10462850;28;20094;-75
2024/03/04 06:49:56;;;;;;;19.90;7.32;;;;;;;;;;10475295;28;20098;-74
2024/03/04 06:55:00;;;;;;;15.63;6.13;;;;;;;;;;10473637;28;20128;-75
2024/03/04 07:00:05;;;;;;;18.27;8.30;;;;;;;;;;10456455;28;20059;-74
2024/03/04 07:05:08;;;;;;;25.77;9.27;;;;;;;;;;10458512;28;20063;-75
2024/03/04 07:10:11;;;;;;;24.52;8.98;;;;;;;;;;10464147;28;20075;-76
2024/03/04 07:15:15;;;;;;;23.55;10.25;;;;;;;;;;10459862;28;20057;-75
2024/03/04 07:20:19;;;;;;;19.95;7.38;;;;;;;;;;10458953;28;20040;-76
2024/03/04 07:25:21;;;;;;;19.42;7.78;;;;;;;;;;10466640;28;20040;-75
2024/03/04 07:30:26;;;;;;;25.13;9.35;;;;;;;;;;10463657;28;20052;-75
2024/03/04 07:35:29;;;;;;;28.77;10.80;;;;;;;;;;10463525;28;20048;-76
2024/03/04 07:40:32;;;;;;;12.88;5.45;;;;;;;;;;10464602;28;20077;-75
2024/03/04 07:45:36;;;;;;;22.45;9.15;;;;;;;;;;10449308;28;20069;-74
2024/03/04 07:50:39;;;;;;;26.00;10.05;;;;;;;;;;10484532;28;20116;-75
2024/03/04 07:55:43;;;;;;;30.45;12.05;;;;;;;;;;10458331;28;20049;-76
2024/03/04 08:00:47;;;;;;;24.63;10.82;;;;;;;;;;10467389;28;20045;-75
2024/03/04 08:05:50;;;;;;;;;;;;;;;;;;10461469;28;20613;-75
2024/03/04 08:10:53;;;;;;;28.00;12.15;;;;;;;;;;10461025;28;19924;-75
2024/03/04 08:15:57;;;;;;;31.15;12.30;;;;;;;;;;10463250;28;20193;-75
2024/03/04 08:21:01;;;;;;;26.25;10.48;;;;;;;;;;10466000;28;20031;-76
2024/03/04 08:26:05;;;;;;;31.13;11.70;;;;;;;;;;10464550;28;20539;-75
2024/03/04 08:31:09;;;;;;;22.10;8.30;;;;;;;;;;10462477;28;20037;-74
2024/03/04 08:36:11;;;;;;;26.13;10.43;;;;;;;;;;10465830;28;20119;-74
2024/03/04 08:41:15;;;;;;;29.13;11.95;;;;;;;;;;10474229;28;20049;-74
2024/03/04 08:46:19;;;;;;;31.65;11.20;;;;;;;;;;10466793;28;20427;-75
2024/03/04 08:51:24;;;;;;;;;;;;;;;;;;10469403;28;21440;-75
2024/03/04 08:56:27;;;;;;;29.88;12.13;;;;;;;;;;10470945;28;19935;-75
2024/03/04 09:01:32;;;;;;;31.65;11.18;;;;;;;;;;10464197;28;20029;-74
2024/03/04 09:06:35;;;;;;;27.95;11.48;;;;;;;;;;10462386;28;20138;-76
2024/03/04 09:11:38;;;;;;;29.55;10.98;;;;;;;;;;10458201;28;20041;-75
2024/03/04 09:16:42;;;;;;;26.52;11.38;;;;;;;;;;10467905;28;20441;-74
2024/03/04 09:21:46;;;;;;;20.40;8.40;;;;;;;;;;10460930;28;20044;-75
2024/03/04 09:26:49;;;;;;;26.75;10.93;;;;;;;;;;10460991;28;20044;-74
2024/03/04 09:31:53;;;;;;;27.58;10.13;;;;;;;;;;10460969;28;20052;-75
2024/03/04 09:36:55;;;;;;;;;;;;;;;;;;10469270;28;20278;-75
2024/03/04 09:41:59;;;;;;;21.02;7.38;;;;;;;;;;10466183;28;19968;-74
2024/03/04 09:47:04;;;;;;;24.48;10.43;;;;;;;;;;10466673;28;20056;-75
2024/03/04 09:52:08;;;;;;;26.58;10.93;;;;;;;;;;10464137;28;20203;-74
2024/03/04 09:57:11;;;;;;;26.80;10.80;;;;;;;;;;10465956;28;22776;-75
2024/03/04 10:02:16;;;;;;;30.05;11.63;;;;;;;;;;10463015;28;20131;-74
2024/03/04 10:07:19;;;;;;;26.42;10.73;;;;;;;;;;10465274;28;20044;-75
2024/03/04 10:12:22;;;;;;;29.05;11.43;;;;;;;;;;10472710;28;20120;-75
2024/03/04 10:17:27;;;;;;;24.95;9.13;;;;;;;;;;10458502;28;20055;-75
2024/03/04 10:22:32;;;;;;;31.30;11.82;;;;;;;;;;10458645;28;20451;-75
2024/03/04 10:27:36;;;;;;;24.88;9.98;;;;;;;;;;10461037;28;20045;-75
2024/03/04 10:32:39;;;;;;;;;;;;;;;;;;10461764;28;20037;-75
2024/03/04 10:37:43;;;;;;;28.70;10.75;;;;;;;;;;10464807;28;19920;-76
2024/03/04 10:42:47;;;;;;;21.98;9.30;;;;;;;;;;10470074;28;20477;-76
2024/03/04 10:47:49;;;;;;;28.73;12.40;;;;;;;;;;10463004;28;20549;-76
2024/03/04 10:52:54;;;;;;;26.83;10.60;;;;;;;;;;10457040;28;20037;-75
2024/03/04 10:58:01;;;;;;;26.38;10.52;;;;;;;;;;10469016;28;20052;-75
2024/03/04 11:03:12;;;;;;;23.30;9.15;;;;;;;;;;10463302;28;20106;-75
2024/03/04 11:08:19;;;;;;;23.20;8.88;;;;;;;;;;10458096;28;20052;-75
2024/03/04 11:13:25;;;;;;;19.50;8.70;;;;;;;;;;10453685;28;20051;-75
2024/03/04 11:18:34;;;;;;;23.00;8.77;;;;;;;;;;10464988;28;20050;-76
2024/03/04 11:23:38;;;;;;;23.55;10.35;;;;;;;;;;10464516;28;20045;-76
2024/03/04 11:28:41;;;;;;;24.92;10.18;;;;;;;;;;10456962;28;20048;-75
2024/03/04 11:33:45;;;;;;;17.67;7.93;;;;;;;;;;10467590;28;20118;-76
2024/03/04 11:38:51;;;;;;;23.40;8.98;;;;;;;;;;10458905;28;20064;-76
2024/03/04 11:43:56;;;;;;;21.52;9.43;;;;;;;;;;10458027;28;20123;-74
2024/03/04 11:49:15;;;;;;;24.00;10.10;;;;;;;;;;10461456;28;20131;-77
2024/03/04 11:54:19;;;;;;;22.52;9.15;;;;;;;;;;10472359;28;20041;-76
2024/03/04 11:59:22;;;;;;;20.13;7.75;;;;;;;;;;10466191;28;20114;-76
2024/03/04 12:04:28;;;;;;;24.35;9.23;;;;;;;;;;10472164;28;20044;-77
2024/03/04 12:09:34;;;;;;;21.45;8.63;;;;;;;;;;10473146;28;20105;-76
2024/03/04 12:14:42;;;;;;;20.13;8.50;;;;;;;;;;10471219;28;20094;-74
2024/03/04 12:19:54;;;;;;;25.05;8.85;;;;;;;;;;10468034;28;20118;-76
2024/03/04 12:25:03;;;;;;;21.58;9.00;;;;;;;;;;10463027;28;20129;-75
2024/03/04 12:30:07;;;;;;;22.38;8.90;;;;;;;;;;10462492;28;20517;-77
2024/03/04 12:35:14;;;;;;;26.48;10.23;;;;;;;;;;10468808;28;20056;-76
2024/03/04 12:40:19;;;;;;;23.98;8.43;;;;;;;;;;10462650;28;20064;-76
2024/03/04 12:45:25;;;;;;;21.85;9.05;;;;;;;;;;10467798;28;20550;-75
2024/03/04 12:50:29;;;;;;;22.58;8.90;;;;;;;;;;10468554;28;20116;-75
2024/03/04 12:55:32;;;;;;;;;;;;;;;;;;10465365;28;20047;-75
2024/03/04 13:00:36;;;;;;;21.25;8.63;;;;;;;;;;10461290;28;19944;-76
2024/03/04 13:05:39;;;;;;;23.33;9.05;;;;;;;;;;10473020;28;20261;-75
2024/03/04 13:10:42;;;;;;;23.83;8.85;;;;;;;;;;10478053;28;20044;-74
2024/03/04 13:15:50;;;;;;;22.23;9.25;;;;;;;;;;10463902;28;20045;-74
2024/03/04 13:20:53;;;;;;;23.00;8.77;;;;;;;;;;10464094;28;20136;-74
2024/03/04 13:25:55;;;;;;;25.73;8.25;;;;;;;;;;10464527;28;20550;-75
2024/03/04 13:30:59;;;;;;;24.83;8.05;;;;;;;;;;10467258;28;20148;-75
2024/03/04 13:36:02;;;;;;;20.52;8.00;;;;;;;;;;10463686;28;20068;-75
2024/03/04 13:41:05;;;;;;;18.23;7.82;;;;;;;;;;10470242;28;20029;-76
2024/03/04 13:46:09;;;;;;;23.83;8.90;;;;;;;;;;10464987;28;20040;-75
2024/03/04 13:51:12;;;;;;;24.80;8.57;;;;;;;;;;10470713;28;20049;-75
2024/03/04 13:56:15;;;;;;;21.95;8.05;;;;;;;;;;10463142;28;20037;-75
2024/03/04 14:01:19;;;;;;;20.60;7.45;;;;;;;;;;10464815;28;20490;-75
2024/03/04 14:06:22;;;;;;;22.42;9.38;;;;;;;;;;10458822;28;20386;-75
2024/03/04 14:11:25;;;;;;;21.52;8.30;;;;;;;;;;10460391;28;20159;-76
2024/03/04 14:16:29;;;;;;;21.58;7.97;;;;;;;;;;10470825;28;20382;-75
2024/03/04 14:21:31;;;;;;;;;;;;;;;;;;10460336;28;20048;-76
2024/03/04 14:26:34;;;;;;;22.27;8.32;;;;;;;;;;10463511;28;20369;-76
2024/03/04 14:31:38;;;;;;;18.65;8.23;;;;;;;;;;10463917;28;20133;-75
2024/03/04 14:36:41;;;;;;;18.65;7.82;;;;;;;;;;10465694;28;20517;-77
2024/03/04 14:41:44;;;;;;;17.90;7.28;;;;;;;;;;10471343;28;20134;-76
2024/03/04 14:46:49;;;;;;;18.00;8.07;;;;;;;;;;10465893;28;20049;-74
2024/03/04 14:51:52;;;;;;;19.73;7.75;;;;;;;;;;10466342;28;20114;-75
2024/03/04 14:56:55;;;;;;;22.05;8.18;;;;;;;;;;10482236;28;20040;-74
2024/03/04 15:01:59;;;;;;;23.15;8.70;;;;;;;;;;10480758;28;20066;-75
2024/03/04 15:07:04;;;;;;;20.48;7.45;;;;;;;;;;10474124;28;20098;-76
2024/03/04 15:12:07;;;;;;;20.38;7.20;;;;;;;;;;10475163;28;20449;-75
2024/03/04 15:17:12;;;;;;;16.77;6.68;;;;;;;;;;10468677;28;20139;-74
2024/03/04 15:22:15;;;;;;;17.60;6.97;;;;;;;;;;10462530;28;20513;-75
2024/03/04 15:27:18;;;;;;;19.73;6.55;;;;;;;;;;10471452;28;20048;-75
2024/03/04 15:32:21;;;;;;;17.95;6.88;;;;;;;;;;10468154;28;20136;-75
2024/03/04 15:37:25;;;;;;;21.92;7.78;;;;;;;;;;10481781;28;20048;-76
2024/03/04 15:42:28;;;;;;;19.92;7.30;;;;;;;;;;10465347;28;20052;-76
2024/03/04 15:47:32;;;;;;;19.63;7.47;;;;;;;;;;10467264;28;20036;-74
2024/03/04 15:52:35;;;;;;;19.67;7.60;;;;;;;;;;10486867;28;20063;-77
2024/03/04 15:57:38;;;;;;;19.90;7.70;;;;;;;;;;10467298;28;20052;-75
2024/03/04 16:02:42;;;;;;;22.35;7.68;;;;;;;;;;10469419;28;20131;-76
2024/03/04 16:07:45;;;;;;;20.58;7.85;;;;;;;;;;10473122;28;20111;-77
2024/03/04 16:12:48;;;;;;;19.33;7.75;;;;;;;;;;10475379;28;20037;-75
2024/03/04 16:17:53;;;;;;;23.75;8.18;;;;;;;;;;10475120;28;20084;-76
2024/03/04 16:22:56;;;;;;;23.20;7.55;;;;;;;;;;10462696;28;20040;-76
2024/03/04 16:27:59;;;;;;;17.27;6.70;;;;;;;;;;10469064;28;20059;-76
2024/03/04 16:33:04;;;;;;;23.97;8.10;;;;;;;;;;10478311;28;20044;-76
2024/03/04 16:38:09;;;;;;;18.40;6.43;;;;;;;;;;10462470;28;20040;-76
2024/03/04 16:43:11;;;;;;;19.90;7.85;;;;;;;;;;10466365;28;20159;-76
2024/03/04 16:48:17;;;;;;;19.75;7.53;;;;;;;;;;10462532;28;20033;-78
2024/03/04 16:53:21;;;;;;;19.83;7.82;;;;;;;;;;10468941;28;20137;-76
2024/03/04 16:58:24;;;;;;;15.48;5.55;;;;;;;;;;10467331;28;20113;-75
2024/03/04 17:03:28;;;;;;;17.58;6.80;;;;;;;;;;10472772;28;20040;-75
2024/03/04 17:08:31;;;;;;;17.73;7.13;;;;;;;;;;10474714;28;20041;-75
2024/03/04 17:13:34;;;;;;;20.70;8.68;;;;;;;;;;10474081;28;20554;-76
2024/03/04 17:18:38;;;;;;;23.15;7.35;;;;;;;;;;10474549;28;20040;-78
2024/03/04 17:23:40;;;;;;;23.10;8.30;;;;;;;;;;10472134;28;20436;-76
2024/03/04 17:28:43;;;;;;;22.20;8.40;;;;;;;;;;10470289;28;20494;-75
2024/03/04 17:33:48;;;;;;;20.50;7.90;;;;;;;;;;10469521;28;20052;-77
2024/03/04 17:38:51;;;;;;;;;;;;;;;;;;10474309;28;20041;-75
2024/03/04 17:43:56;;;;;;;22.38;8.65;;;;;;;;;;10466110;28;19921;-75
2024/03/04 17:49:00;;;;;;;26.33;8.32;;;;;;;;;;10471691;28;20069;-75
2024/03/04 17:54:03;;;;;;;;;;;;;;;;;;10472405;28;20115;-75
2024/03/04 17:59:06;;;;;;;22.30;7.03;;;;;;;;;;10475174;28;19920;-74
2024/03/04 18:04:11;;;;;;;31.88;9.63;;;;;;;;;;10468773;28;20049;-74
2024/03/04 18:09:13;;;;;;;25.23;9.00;;;;;;;;;;10467512;28;20041;-75
2024/03/04 18:14:16;;;;;;;27.90;9.15;;;;;;;;;;10473821;28;20505;-76
2024/03/04 18:19:20;;;;;;;27.02;9.30;;;;;;;;;;10472748;28;20102;-75
2024/03/04 18:24:23;;;;;;;;;;;;;;;;;;10462934;28;20414;-74
2024/03/04 18:29:26;;;;;;;31.40;10.85;;;;;;;;;;10461459;28;19920;-74
2024/03/04 18:34:30;;;;;;;27.83;9.20;;;;;;;;;;10471318;28;20075;-75
2024/03/04 18:39:33;;;;;;;28.42;9.77;;;;;;;;;;10467278;28;20454;-75
2024/03/04 18:44:36;;;;;;;34.00;10.80;;;;;;;;;;10468759;28;20052;-76
2024/03/04 18:49:40;;;;;;;24.17;9.55;;;;;;;;;;10454536;28;20040;-76
2024/03/04 18:54:43;;;;;;;;;;;;;;;;;;10458225;28;20521;-75
2024/03/04 18:59:46;;;;;;;34.42;11.43;;;;;;;;;;10463540;28;20512;-74
2024/03/04 19:04:51;;;;;;;29.92;10.40;;;;;;;;;;10473403;28;20102;-76
2024/03/04 19:09:54;;;;;;;31.40;11.20;;;;;;;;;;10464555;28;20064;-75
2024/03/04 19:14:58;;;;;;;32.15;10.82;;;;;;;;;;10459146;28;20057;-75
2024/03/04 19:20:06;;;;;;;33.35;10.95;;;;;;;;;;10450921;28;20517;-75
2024/03/04 19:25:10;;;;;;;33.45;11.40;;;;;;;;;;10464555;28;20090;-76
2024/03/04 19:30:13;;;;;;;30.00;11.07;;;;;;;;;;10470942;28;20056;-75
2024/03/04 19:35:17;;;;;;;33.53;11.80;;;;;;;;;;10463205;28;20174;-76
2024/03/04 19:40:20;;;;;;;36.33;12.82;;;;;;;;;;10462416;28;20040;-76
2024/03/04 19:45:23;;;;;;;32.63;11.60;;;;;;;;;;10458706;28;20033;-76
2024/03/04 19:50:28;;;;;;;46.20;18.27;;;;;;;;;;10457430;28;20102;-75
2024/03/04 19:55:34;;;;;;;33.90;11.68;;;;;;;;;;10454747;28;20052;-75
2024/03/04 20:00:37;;;;;;;36.13;11.63;;;;;;;;;;10464702;28;20048;-75
2024/03/04 20:05:41;;;;;;;38.53;12.15;;;;;;;;;;10461037;28;20116;-76
2024/03/04 20:10:44;;;;;;;38.42;12.88;;;;;;;;;;10463293;28;20498;-76
2024/03/04 20:15:47;;;;;;;32.88;11.10;;;;;;;;;;10462306;28;20041;-75
2024/03/04 20:20:51;;;;;;;36.75;11.82;;;;;;;;;;10470990;28;20049;-74
2024/03/04 20:25:54;;;;;;;;;;;;;;;;;;10471138;28;20072;-76
2024/03/04 20:30:57;;;;;;;35.78;12.38;;;;;;;;;;10464406;28;19924;-76
2024/03/04 20:36:02;;;;;;;42.45;12.50;;;;;;;;;;10467005;28;20053;-76
2024/03/04 20:41:08;;;;;;;41.45;12.02;;;;;;;;;;10466998;28;20048;-76
2024/03/04 20:46:13;;;;;;;46.95;13.65;;;;;;;;;;10466709;28;20403;-75
2024/03/04 20:51:17;;;;;;;42.25;13.75;;;;;;;;;;10467055;28;20053;-74
2024/03/04 20:56:20;;;;;;;42.83;13.63;;;;;;;;;;10468974;28;20037;-75
2024/03/04 21:01:23;;;;;;;42.47;12.98;;;;;;;;;;10464466;28;20053;-76
2024/03/04 21:06:27;;;;;;;46.20;13.43;;;;;;;;;;10467698;28;20041;-77
2024/03/04 21:11:30;;;;;;;42.30;12.52;;;;;;;;;;10468591;28;20102;-76
2024/03/04 21:16:34;;;;;;;44.55;13.55;;;;;;;;;;10470415;28;20106;-76
2024/03/04 21:21:38;;;;;;;38.65;12.50;;;;;;;;;;10468626;28;20045;-76
2024/03/04 21:26:40;;;;;;;;;;;;;;;;;;10472479;28;20561;-76
2024/03/04 21:31:43;;;;;;;42.58;12.80;;;;;;;;;;10470212;28;20437;-75
2024/03/04 21:36:47;;;;;;;43.55;12.02;;;;;;;;;;10465375;28;20521;-76
2024/03/04 21:41:50;;;;;;;36.00;11.95;;;;;;;;;;10475620;28;20102;-76
2024/03/04 21:46:53;;;;;;;48.30;13.10;;;;;;;;;;10462885;28;20422;-76
2024/03/04 21:51:57;;;;;;;41.20;12.25;;;;;;;;;;10481644;28;20117;-77
2024/03/04 21:57:00;;;;;;;42.20;12.45;;;;;;;;;;10468640;28;20103;-78
2024/03/04 22:02:04;;;;;;;40.58;12.88;;;;;;;;;;10460900;28;20048;-76
2024/03/04 22:07:08;;;;;;;40.20;12.93;;;;;;;;;;10470174;28;21490;-76
2024/03/04 22:12:11;;;;;;;40.78;12.38;;;;;;;;;;10463402;28;20298;-76
2024/03/04 22:17:14;;;;;;;40.58;13.23;;;;;;;;;;10469789;28;20040;-75
2024/03/04 22:22:18;;;;;;;44.53;12.10;;;;;;;;;;10463813;28;20062;-74
2024/03/04 22:27:21;;;;;;;47.17;13.82;;;;;;;;;;10473832;28;20043;-75
2024/03/04 22:32:24;;;;;;;41.47;13.10;;;;;;;;;;10467644;28;20049;-76
2024/03/04 22:37:30;;;;;;;40.83;13.27;;;;;;;;;;10467229;28;20044;-75
2024/03/04 22:42:33;;;;;;;44.35;12.95;;;;;;;;;;10472182;28;20067;-76
2024/03/04 22:47:35;;;;;;;37.83;13.05;;;;;;;;;;10471020;28;20093;-74
2024/03/04 22:52:39;;;;;;;42.15;11.98;;;;;;;;;;10473636;28;20513;-76
2024/03/04 22:57:43;;;;;;;;;;;;;;;;;;10461452;28;20090;-77
2024/03/04 23:02:48;;;;;;;34.35;11.52;;;;;;;;;;10463045;28;20462;-76
2024/03/04 23:07:53;;;;;;;36.85;11.40;;;;;;;;;;10464630;28;20118;-74
2024/03/04 23:12:56;;;;;;;37.75;11.70;;;;;;;;;;10476456;28;20051;-76
2024/03/04 23:17:59;;;;;;;39.50;12.95;;;;;;;;;;10471354;28;20080;-74
2024/03/04 23:23:03;;;;;;;38.88;12.20;;;;;;;;;;10462527;28;20044;-74
2024/03/04 23:28:05;;;;;;;;;;;;;;;;;;10469543;28;20045;-76
2024/03/04 23:33:08;;;;;;;40.80;12.10;;;;;;;;;;10465147;28;19925;-76
2024/03/04 23:38:12;;;;;;;44.75;13.13;;;;;;;;;;10457811;28;20138;-75
2024/03/04 23:43:15;;;;;;;;;;;;;;;;;;10477925;28;20072;-76
2024/03/04 23:48:19;;;;;;;40.13;11.70;;;;;;;;;;10481514;28;20382;-77
2024/03/04 23:53:23;;;;;;;;;;;;;;;;;;10480419;28;20047;-76
2024/03/04 23:58:28;;;;;;;41.95;14.15;;;;;;;;;;10476888;28;19927;-75
